This is the latest recevied weather packets stored in our database for station/object R1ZCU-14. If no packets are shown the sender has not sent any weather packets the latest 10 day(s).
| Time | Temp. | Humidity | Pressure | Rain* | Wind** | Luminosity | Snow |
|---|---|---|---|---|---|---|---|
| 1787845735 | 9.44° C | 74% | 1021.4 hPa | - | - | - | - |
| 1787845135 | 9.44° C | 75% | 1021.3 hPa | - | - | - | - |
| 1787844534 | 9.44° C | 77% | 1021.3 hPa | - | - | - | - |
| 1787843934 | 9.44° C | 73% | 1021.3 hPa | - | - | - | - |
| 1787843333 | 10° C | 72% | 1021.3 hPa | - | - | - | - |
| 1787842733 | 10° C | 74% | 1021.3 hPa | - | - | - | - |
| 1787842132 | 9.44° C | 79% | 1021.3 hPa | - | - | - | - |
| 1787841532 | 9.44° C | 81% | 1021.3 hPa | - | - | - | - |
| 1787840931 | 10° C | 78% | 1021.3 hPa | - | - | - | - |
| 1787840331 | 10.56° C | 69% | 1021.3 hPa | - | - | - | - |
| 1787839730 | 11.11° C | 64% | 1021.1 hPa | - | - | - | - |
| 1787839130 | 10.56° C | 65% | 1021 hPa | - | - | - | - |
| 1787838529 | 10.56° C | 65% | 1021 hPa | - | - | - | - |
| 1787837929 | 10.56° C | 68% | 1021.1 hPa | - | - | - | - |
| 1787837328 | 10° C | 70% | 1021 hPa | - | - | - | - |
| 1787836728 | 10° C | 76% | 1021.1 hPa | - | - | - | - |
| 1787836127 | 9.44° C | 78% | 1021.1 hPa | - | - | - | - |
| 1787835527 | 10.56° C | 73% | 1021.1 hPa | - | - | - | - |
| 1787834926 | 10.56° C | 69% | 1021 hPa | - | - | - | - |
| 1787834326 | 10.56° C | 66% | 1020.8 hPa | - | - | - | - |
| 1787833725 | 10.56° C | 71% | 1020.8 hPa | - | - | - | - |
| 1787833125 | 11.11° C | 72% | 1020.8 hPa | - | - | - | - |
| 1787832524 | 11.11° C | 78% | 1020.8 hPa | - | - | - | - |
| 1787831924 | 10.56° C | 76% | 1020.9 hPa | - | - | - | - |
| 1787831323 | 10° C | 84% | 1021 hPa | - | - | - | - |
* Rain since midnight (hover to see other rain measurements)
** Current wind speed in m/s (hover to see current wind gust speed)